Time;durP1;ratioP1;P1;durP2;ratioP2;P2;SDS_P1;SDS_P2;PMS_P1;PMS_P2;Temp;Humidity;BMP_temperature;BMP_pressure;BME280_temperature;BME280_humidity;BME280_pressure;Samples;Min_cycle;Max_cycle;Signal;HPM_P1;HPM_P2
2024/01/12 00:01:46;;;;;;;53.57;24.93;;;;;;;-5.28;100.00;99446.03;5054669;28;20295;-81
2024/01/12 00:04:12;;;;;;;44.80;23.40;;;;;;;-5.31;100.00;99446.84;5054728;28;20209;-81
2024/01/12 00:06:39;;;;;;;48.03;24.07;;;;;;;-5.37;100.00;99449.34;5054426;28;20221;-81
2024/01/12 00:09:07;;;;;;;43.77;21.47;;;;;;;-5.41;100.00;99455.31;5055197;28;20555;-81
2024/01/12 00:11:33;;;;;;;41.57;22.97;;;;;;;-5.49;100.00;99454.31;5054805;28;20240;-81
2024/01/12 00:14:00;;;;;;;48.43;24.20;;;;;;;-5.46;100.00;99446.66;5055655;28;20231;-81
2024/01/12 00:16:26;;;;;;;45.23;22.43;;;;;;;-5.43;100.00;99453.56;5055221;28;20670;-81
2024/01/12 00:18:53;;;;;;;48.87;22.97;;;;;;;-5.45;100.00;99455.25;5054723;28;20217;-81
2024/01/12 00:21:20;;;;;;;51.80;24.40;;;;;;;-5.48;100.00;99444.88;5054562;28;20229;-81
2024/01/12 00:23:48;;;;;;;47.83;24.10;;;;;;;-5.46;100.00;99456.06;5055573;28;20228;-81
2024/01/12 00:26:15;;;;;;;49.33;24.83;;;;;;;-5.46;100.00;99450.91;5054957;28;20210;-81
2024/01/12 00:28:42;;;;;;;47.63;23.60;;;;;;;-5.51;100.00;99447.44;5055824;28;20218;-81
2024/01/12 00:31:08;;;;;;;43.17;24.37;;;;;;;-5.54;100.00;99449.94;5056123;28;20242;-81
2024/01/12 00:33:35;;;;;;;51.33;25.00;;;;;;;-5.52;100.00;99448.25;5056172;28;20210;-81
2024/01/12 00:36:01;;;;;;;51.73;25.80;;;;;;;-5.47;100.00;99454.34;5056450;28;20209;-81
2024/01/12 00:38:28;;;;;;;44.13;26.10;;;;;;;-5.54;100.00;99452.53;5055690;28;20206;-81
2024/01/12 00:40:54;;;;;;;47.77;24.70;;;;;;;-5.51;100.00;99462.88;5056004;28;20692;-81
2024/01/12 00:43:22;;;;;;;42.47;22.23;;;;;;;-5.53;100.00;99460.28;5055911;28;20217;-81
2024/01/12 00:45:49;;;;;;;48.90;24.60;;;;;;;-5.56;100.00;99464.53;5055798;28;20218;-81
2024/01/12 00:48:15;;;;;;;50.27;23.67;;;;;;;-5.60;100.00;99457.59;5056219;28;20211;-81
2024/01/12 00:50:43;;;;;;;48.30;24.67;;;;;;;-5.54;100.00;99463.69;5056096;28;20232;-81
2024/01/12 00:53:10;;;;;;;43.17;23.23;;;;;;;-5.63;100.00;99462.69;5057053;28;20233;-81
2024/01/12 00:55:36;;;;;;;46.07;22.83;;;;;;;-5.70;100.00;99466.00;5058781;28;20221;-81
2024/01/12 00:58:05;;;;;;;50.30;23.67;;;;;;;-5.74;100.00;99462.50;5060986;28;20204;-81
2024/01/12 01:00:33;;;;;;;47.87;24.47;;;;;;;-5.72;100.00;99462.53;5060896;28;20260;-81
2024/01/12 01:03:01;;;;;;;46.40;24.00;;;;;;;-5.70;100.00;99466.00;5059717;28;20742;-81
2024/01/12 01:05:28;;;;;;;52.10;26.70;;;;;;;-5.65;100.00;99462.66;5060967;28;20281;-81
2024/01/12 01:07:54;;;;;;;58.73;26.33;;;;;;;-5.61;100.00;99461.84;5060319;28;20217;-81
2024/01/12 01:10:24;;;;;;;50.20;25.23;;;;;;;-5.58;100.00;99471.34;5060740;28;20231;-81
2024/01/12 01:12:50;;;;;;;49.77;25.10;;;;;;;-5.60;100.00;99462.72;5060473;28;20237;-81
2024/01/12 01:15:17;;;;;;;44.30;23.17;;;;;;;-5.64;100.00;99477.28;5059358;28;20206;-81
2024/01/12 01:17:45;;;;;;;44.03;22.67;;;;;;;-5.71;100.00;99479.72;5058865;28;20208;-81
2024/01/12 01:20:12;;;;;;;43.00;21.90;;;;;;;-5.71;100.00;99474.56;5058266;28;20200;-81
2024/01/12 01:22:38;;;;;;;45.23;22.03;;;;;;;-5.67;100.00;99486.66;5058722;28;20231;-81
2024/01/12 01:25:06;;;;;;;44.33;21.30;;;;;;;-5.64;100.00;99479.84;5058958;28;20218;-81
2024/01/12 01:27:32;;;;;;;49.50;22.90;;;;;;;-5.72;100.00;99483.13;5058550;28;20628;-81
2024/01/12 01:30:00;;;;;;;44.80;21.53;;;;;;;-5.69;100.00;99485.78;5058022;28;20209;-81
2024/01/12 01:32:26;;;;;;;42.70;21.77;;;;;;;-5.72;100.00;99483.13;5058413;28;20231;-81
2024/01/12 01:34:54;;;;;;;41.27;20.53;;;;;;;-5.63;100.00;99478.16;5061266;28;20208;-81
2024/01/12 01:37:21;;;;;;;44.03;21.20;;;;;;;-5.66;100.00;99490.97;5062661;28;20208;-81
2024/01/12 01:39:47;;;;;;;37.00;20.00;;;;;;;-5.66;100.00;99488.38;5063272;28;20220;-81
2024/01/12 01:42:14;;;;;;;40.27;20.17;;;;;;;-5.63;100.00;99493.59;5063109;28;20600;-81
2024/01/12 01:44:39;;;;;;;38.97;19.23;;;;;;;-5.76;100.00;99491.66;5063295;28;20222;-81
2024/01/12 01:47:06;;;;;;;43.03;20.77;;;;;;;-5.74;100.00;99487.41;5063360;28;20666;-80
2024/01/12 01:49:32;;;;;;;38.80;19.80;;;;;;;-5.65;100.00;99488.41;5063641;28;20217;-80
2024/01/12 01:52:00;;;;;;;38.67;20.07;;;;;;;-5.68;100.00;99484.94;5064092;28;20245;-80
2024/01/12 01:54:28;;;;;;;39.93;20.40;;;;;;;-5.77;100.00;99482.19;5063462;28;20563;-80
2024/01/12 01:56:55;;;;;;;42.43;20.50;;;;;;;-5.76;100.00;99478.78;5063569;28;20204;-80
2024/01/12 01:59:21;;;;;;;43.53;20.90;;;;;;;-5.72;100.00;99483.13;5063778;28;20219;-82
2024/01/12 02:01:48;;;;;;;44.23;22.23;;;;;;;-5.58;100.00;99486.78;5064193;28;20228;-80
2024/01/12 02:04:14;;;;;;;41.67;19.90;;;;;;;-5.61;100.00;99489.34;5064143;28;20211;-82
2024/01/12 02:06:41;;;;;;;42.13;21.90;;;;;;;-5.68;100.00;99477.22;5064559;28;20208;-83
2024/01/12 02:09:10;;;;;;;38.87;20.13;;;;;;;-5.71;100.00;99469.41;5063251;28;20557;-81
2024/01/12 02:11:37;;;;;;;33.43;19.77;;;;;;;-5.73;100.00;99476.25;5064022;28;20237;-80
2024/01/12 02:14:06;;;;;;;43.47;20.80;;;;;;;-5.64;100.00;99476.38;5063627;28;20216;-82
2024/01/12 02:16:34;;;;;;;31.47;17.10;;;;;;;-5.73;100.00;99481.41;5063588;28;20236;-81
2024/01/12 02:19:00;;;;;;;36.70;18.80;;;;;;;-5.77;100.00;99480.50;5063375;28;20213;-82
2024/01/12 02:21:28;;;;;;;38.50;18.23;;;;;;;-5.84;100.00;99480.41;5063576;28;20221;-80
2024/01/12 02:23:55;;;;;;;32.90;18.60;;;;;;;-5.83;100.00;99482.13;5063011;28;20534;-80
2024/01/12 02:26:21;;;;;;;33.20;17.43;;;;;;;-5.85;100.00;99481.25;5063470;28;20215;-81
2024/01/12 02:28:48;;;;;;;34.43;17.77;;;;;;;-5.85;100.00;99481.25;5063215;28;20560;-82
2024/01/12 02:31:16;;;;;;;31.47;17.93;;;;;;;-5.90;100.00;99480.31;5063475;28;20235;-81
2024/01/12 02:33:42;;;;;;;30.33;17.10;;;;;;;-5.94;100.00;99465.63;5063306;28;20216;-80
2024/01/12 02:36:09;;;;;;;30.03;18.23;;;;;;;-5.93;100.00;99462.25;5062701;28;20204;-80
2024/01/12 02:38:37;;;;;;;35.27;17.93;;;;;;;-5.92;100.00;99461.41;5062405;28;20222;-80
2024/01/12 02:41:03;;;;;;;36.43;18.87;;;;;;;-5.90;100.00;99462.28;5062218;28;20267;-82
2024/01/12 02:43:30;;;;;;;44.27;19.53;;;;;;;-5.90;100.00;99460.59;5062260;28;20246;-81
2024/01/12 02:45:56;;;;;;;42.03;20.27;;;;;;;-5.87;100.00;99463.19;5063749;28;20208;-81
2024/01/12 02:48:23;;;;;;;43.83;20.80;;;;;;;-5.83;100.00;99469.25;5061279;28;20270;-82
2024/01/12 02:50:49;;;;;;;40.43;20.27;;;;;;;-5.83;100.00;99456.38;5062136;28;20232;-80
2024/01/12 02:53:17;;;;;;;41.20;20.80;;;;;;;-5.92;100.00;99461.41;5062196;28;20215;-80
2024/01/12 02:55:45;;;;;;;42.47;20.53;;;;;;;-5.99;100.00;99452.69;5062684;28;20214;-82
2024/01/12 02:58:12;;;;;;;45.07;21.93;;;;;;;-5.87;100.00;99452.91;5063320;28;20208;-82
2024/01/12 03:00:38;;;;;;;50.60;22.77;;;;;;;-5.89;100.00;99456.28;5063265;28;20709;-81
2024/01/12 03:03:05;;;;;;;44.17;22.67;;;;;;;-5.86;100.00;99453.78;5062496;28;20232;-81
2024/01/12 03:05:31;;;;;;;46.10;22.87;;;;;;;-5.86;100.00;99448.63;5062921;28;20290;-81
2024/01/12 03:07:58;;;;;;;48.00;23.97;;;;;;;-5.64;100.00;99455.78;5061389;28;20210;-81
2024/01/12 03:10:25;;;;;;;40.83;21.40;;;;;;;-5.73;100.00;99445.38;5062168;28;20208;-80
2024/01/12 03:12:52;;;;;;;47.30;21.47;;;;;;;-5.79;100.00;99445.28;5066014;28;20303;-81
2024/01/12 03:15:19;;;;;;;43.47;22.87;;;;;;;-5.89;100.00;99448.56;5064246;28;20205;-81
2024/01/12 03:17:45;;;;;;;46.17;24.43;;;;;;;-5.90;100.00;99444.25;5063045;28;20224;-80
2024/01/12 03:20:12;;;;;;;46.43;21.40;;;;;;;-5.95;100.00;99453.63;5063521;28;20204;-81
2024/01/12 03:22:38;;;;;;;46.60;24.10;;;;;;;-5.78;100.00;99447.00;5062444;28;20228;-81
2024/01/12 03:25:05;;;;;;;46.77;23.73;;;;;;;-5.79;100.00;99451.31;5062371;28;20213;-81
2024/01/12 03:27:33;;;;;;;47.20;23.43;;;;;;;-5.78;100.00;99452.16;5062699;28;20223;-80
2024/01/12 03:30:01;;;;;;;42.50;21.67;;;;;;;-5.82;100.00;99450.38;5062963;28;20234;-81
2024/01/12 03:32:27;;;;;;;40.57;20.37;;;;;;;-5.87;100.00;99454.63;5062555;28;20234;-81
2024/01/12 03:34:54;;;;;;;47.70;23.13;;;;;;;-5.75;100.00;99459.94;5062080;28;20212;-81
2024/01/12 03:37:20;;;;;;;38.97;20.40;;;;;;;-5.82;100.00;99455.53;5062076;28;20226;-81
2024/01/12 03:39:46;;;;;;;44.33;22.13;;;;;;;-5.84;100.00;99457.22;5062976;28;20579;-81
2024/01/12 03:42:13;;;;;;;39.77;22.83;;;;;;;-5.85;100.00;99460.66;5063262;28;20228;-81
2024/01/12 03:44:40;;;;;;;44.47;21.37;;;;;;;-5.91;100.00;99466.59;5062794;28;20208;-81
2024/01/12 03:47:08;;;;;;;41.37;21.77;;;;;;;-6.01;100.00;99469.84;5061678;28;20586;-81
2024/01/12 03:49:34;;;;;;;42.37;22.13;;;;;;;-6.09;100.00;99465.41;5061697;28;20212;-81
2024/01/12 03:52:01;;;;;;;41.70;21.93;;;;;;;-6.15;100.00;99465.28;5061119;28;20614;-81
2024/01/12 03:54:27;;;;;;;49.27;23.67;;;;;;;-6.09;100.00;99463.69;5061957;28;20208;-81
2024/01/12 03:56:54;;;;;;;43.07;22.13;;;;;;;-5.91;100.00;99465.69;5060687;28;20284;-81
2024/01/12 03:59:20;;;;;;;41.87;21.00;;;;;;;-5.96;100.00;99470.78;5061391;28;20210;-80
2024/01/12 04:01:48;;;;;;;37.40;21.23;;;;;;;-6.06;100.00;99470.56;5061370;28;20243;-81
2024/01/12 04:04:15;;;;;;;37.63;20.20;;;;;;;-6.08;100.00;99462.84;5062419;28;20209;-81
2024/01/12 04:06:42;;;;;;;39.83;21.13;;;;;;;-6.13;100.00;99466.16;5062677;28;20215;-81
2024/01/12 04:09:09;;;;;;;39.13;20.27;;;;;;;-6.21;100.00;99476.34;5064460;28;20217;-80
2024/01/12 04:11:36;;;;;;;47.83;22.27;;;;;;;-6.30;100.00;99470.19;5064092;28;20232;-81
2024/01/12 04:14:03;;;;;;;44.47;23.13;;;;;;;-6.33;100.00;99464.97;5064502;28;20680;-81
2024/01/12 04:16:29;;;;;;;44.17;22.00;;;;;;;-6.40;100.00;99460.56;5064357;28;20219;-81
2024/01/12 04:18:56;;;;;;;45.80;22.40;;;;;;;-6.52;100.00;99458.63;5065069;28;20219;-81
2024/01/12 04:21:24;;;;;;;44.90;21.73;;;;;;;-6.62;100.00;99466.13;5065917;28;20232;-81
2024/01/12 04:23:50;;;;;;;43.90;21.87;;;;;;;-6.68;100.00;99468.56;5065049;28;20242;-81
2024/01/12 04:26:17;;;;;;;42.10;22.23;;;;;;;-6.71;100.00;99479.66;5064687;28;20234;-81
2024/01/12 04:28:43;;;;;;;45.97;23.57;;;;;;;-6.77;100.00;99470.97;5062746;28;20212;-81
2024/01/12 04:31:10;;;;;;;44.83;22.57;;;;;;;-6.88;100.00;99463.06;5064105;28;20263;-81
2024/01/12 04:33:36;;;;;;;46.17;22.73;;;;;;;-6.93;100.00;99464.69;5064885;28;20204;-81
2024/01/12 04:36:03;;;;;;;42.20;21.87;;;;;;;-6.93;100.00;99468.09;5064791;28;20206;-81
2024/01/12 04:38:34;;;;;;;39.67;21.40;;;;;;;-7.03;100.00;99469.59;5065490;28;20579;-82
2024/01/12 04:41:00;;;;;;;45.33;22.27;;;;;;;-7.05;100.00;99468.69;5065443;28;20223;-80
2024/01/12 04:43:26;;;;;;;50.77;23.60;;;;;;;-7.07;100.00;99462.66;5062667;28;20212;-81
2024/01/12 04:45:53;;;;;;;49.07;24.80;;;;;;;-7.04;100.00;99475.53;5062035;28;20217;-81
2024/01/12 04:48:19;;;;;;;43.53;22.17;;;;;;;-7.04;100.00;99475.53;5064140;28;20218;-81
2024/01/12 04:50:46;;;;;;;46.23;22.23;;;;;;;-7.06;100.00;99478.94;5065358;28;20214;-81
2024/01/12 04:53:13;;;;;;;43.33;22.57;;;;;;;-7.07;100.00;99482.31;5063982;28;20706;-81
2024/01/12 04:55:40;;;;;;;49.17;22.40;;;;;;;-7.01;100.00;99485.91;5063567;28;20204;-81
2024/01/12 04:58:07;;;;;;;43.13;21.57;;;;;;;-6.93;100.00;99488.66;5064014;28;20214;-81
2024/01/12 05:00:33;;;;;;;42.70;22.40;;;;;;;-6.88;100.00;99488.78;5063309;28;20310;-80
2024/01/12 05:03:00;;;;;;;38.73;22.57;;;;;;;-6.90;100.00;99495.56;5063053;28;20237;-80
2024/01/12 05:05:27;;;;;;;42.07;22.53;;;;;;;-6.87;100.00;99499.91;5063842;28;20219;-80
2024/01/12 05:07:53;;;;;;;45.07;21.37;;;;;;;-6.90;100.00;99495.56;5064162;28;20214;-80
2024/01/12 05:10:19;;;;;;;43.77;22.07;;;;;;;-6.86;100.00;99511.91;5067336;28;20218;-81
2024/01/12 05:12:47;;;;;;;47.33;23.17;;;;;;;-6.89;100.00;99504.16;5067127;28;20236;-81
2024/01/12 05:15:14;;;;;;;45.93;23.23;;;;;;;-6.76;100.00;99506.13;5067046;28;20214;-82
2024/01/12 05:17:40;;;;;;;40.43;21.73;;;;;;;-6.70;100.00;99507.13;5066823;28;20204;-81
2024/01/12 05:20:08;;;;;;;52.27;23.57;;;;;;;-6.64;100.00;99514.09;5067348;28;20216;-81
2024/01/12 05:22:35;;;;;;;50.53;24.30;;;;;;;-6.71;100.00;99513.09;5065017;28;20794;-81
2024/01/12 05:25:02;;;;;;;53.53;25.17;;;;;;;-6.74;100.00;99512.16;5066724;28;20217;-80
2024/01/12 05:27:29;;;;;;;46.40;23.97;;;;;;;-6.69;100.00;99505.41;5066754;28;20217;-80
2024/01/12 05:29:57;;;;;;;47.50;23.50;;;;;;;-6.70;100.00;99494.28;5066088;28;20208;-80
2024/01/12 05:32:23;;;;;;;42.40;23.17;;;;;;;-6.74;100.00;99501.88;5066772;28;20228;-81
2024/01/12 05:34:50;;;;;;;47.37;23.07;;;;;;;-6.74;100.00;99507.00;5066630;28;20212;-80
2024/01/12 05:37:16;;;;;;;42.10;22.17;;;;;;;-6.84;100.00;99497.41;5066070;28;20210;-81
2024/01/12 05:39:43;;;;;;;47.03;22.43;;;;;;;-6.81;100.00;99492.31;5066116;28;20212;-80
2024/01/12 05:42:09;;;;;;;50.93;23.43;;;;;;;-6.69;100.00;99500.25;5063289;28;20333;-80
2024/01/12 05:44:36;;;;;;;56.73;24.67;;;;;;;-6.67;100.00;99490.88;5065503;28;20693;-80
2024/01/12 05:47:04;;;;;;;48.73;23.73;;;;;;;-6.73;100.00;99485.66;5064603;28;20572;-80
2024/01/12 05:49:30;;;;;;;40.87;21.57;;;;;;;-6.63;100.00;99495.25;5065221;28;20208;-81
2024/01/12 05:51:57;;;;;;;48.33;23.93;;;;;;;-6.65;100.00;99491.78;5064348;28;20247;-81
2024/01/12 05:54:24;;;;;;;43.83;22.67;;;;;;;-6.63;100.00;99500.38;5063840;28;20211;-81
2024/01/12 05:56:50;;;;;;;47.30;23.17;;;;;;;-6.56;100.00;99497.97;5065195;28;20699;-82
2024/01/12 05:59:17;;;;;;;48.40;23.63;;;;;;;-6.44;100.00;99497.34;5065882;28;20614;-82
2024/01/12 06:01:43;;;;;;;45.37;24.03;;;;;;;-6.53;100.00;99503.16;5064577;28;20238;-82
2024/01/12 06:04:11;;;;;;;43.80;24.23;;;;;;;-6.54;100.00;99501.44;5064631;28;20208;-82
2024/01/12 06:06:40;;;;;;;53.57;22.37;;;;;;;-6.65;100.00;99492.63;5065113;28;20208;-80
2024/01/12 06:09:07;;;;;;;53.37;24.10;;;;;;;-6.68;100.00;99497.72;5064893;28;20223;-79
2024/01/12 06:11:34;;;;;;;44.43;22.10;;;;;;;-6.70;100.00;99488.25;5063982;28;20328;-80
2024/01/12 06:14:00;;;;;;;47.57;22.50;;;;;;;-6.73;100.00;99493.34;5064320;28;20206;-80
2024/01/12 06:16:27;;;;;;;44.97;24.00;;;;;;;-6.76;100.00;99485.56;5064062;28;20219;-81
2024/01/12 06:18:53;;;;;;;54.80;23.87;;;;;;;-6.70;100.00;99494.28;5063607;28;20624;-80
2024/01/12 06:21:21;;;;;;;44.03;23.90;;;;;;;-6.67;100.00;99496.00;5063296;28;20228;-81
2024/01/12 06:23:48;;;;;;;44.07;22.10;;;;;;;-6.68;100.00;99496.84;5063794;28;20204;-81
2024/01/12 06:26:15;;;;;;;50.90;23.20;;;;;;;-6.77;100.00;99491.53;5064198;28;20239;-80
2024/01/12 06:28:41;;;;;;;50.73;23.67;;;;;;;-6.89;100.00;99496.44;5065354;28;20201;-81
2024/01/12 06:31:08;;;;;;;43.70;21.53;;;;;;;-6.86;100.00;99491.34;5064914;28;20276;-80
2024/01/12 06:33:34;;;;;;;41.47;21.43;;;;;;;-6.96;100.00;99492.00;5065098;28;20250;-80
2024/01/12 06:36:01;;;;;;;42.63;21.43;;;;;;;-6.99;100.00;99489.34;5064533;28;20223;-81
2024/01/12 06:38:29;;;;;;;38.77;20.17;;;;;;;-6.98;100.00;99479.97;5064426;28;20204;-81
2024/01/12 06:40:56;;;;;;;32.23;18.60;;;;;;;-6.98;100.00;99483.38;5063634;28;20465;-81
2024/01/12 06:43:22;;;;;;;38.03;19.30;;;;;;;-6.90;100.00;99485.28;5064573;28;20220;-81
2024/01/12 06:45:49;;;;;;;46.17;22.37;;;;;;;-6.91;100.00;99480.13;5064702;28;20553;-81
2024/01/12 06:48:15;;;;;;;41.93;20.33;;;;;;;-6.86;100.00;99478.50;5064316;28;20219;-81
2024/01/12 06:50:42;;;;;;;49.33;23.10;;;;;;;-6.90;100.00;99471.59;5065911;28;20210;-81
2024/01/12 06:53:09;;;;;;;37.93;20.57;;;;;;;-6.99;100.00;99468.81;5061672;28;20318;-82
2024/01/12 06:55:37;;;;;;;47.47;23.60;;;;;;;-6.92;100.00;99474.13;5057607;28;20587;-78
2024/01/12 06:58:06;;;;;;;45.83;22.67;;;;;;;-6.93;100.00;99471.50;5057868;28;20207;-78
2024/01/12 07:00:35;;;;;;;51.87;23.23;;;;;;;-6.96;100.00;99485.16;5057541;28;20204;-78
2024/01/12 07:03:02;;;;;;;47.07;24.23;;;;;;;-6.96;100.00;99490.28;4975979;28;2367521;-79
2024/01/12 07:05:29;;;;;;;44.30;23.20;;;;;;;-6.91;100.00;99487.84;5060001;28;20212;-81
2024/01/12 07:08:00;;;;;;;37.67;21.03;;;;;;;-6.95;100.00;99481.75;5060688;28;20204;-81
2024/01/12 07:10:26;;;;;;;52.43;24.17;;;;;;;-6.96;100.00;99489.44;5063436;28;20300;-81
2024/01/12 07:12:54;;;;;;;39.70;22.13;;;;;;;-6.93;100.00;99488.66;5060585;28;20703;-81
2024/01/12 07:15:23;;;;;;;50.13;23.40;;;;;;;-6.94;100.00;99487.75;5061282;28;20222;-81
2024/01/12 07:17:52;;;;;;;49.20;21.97;;;;;;;-6.95;100.00;99488.59;5060578;28;20220;-80
2024/01/12 07:20:18;;;;;;;46.60;22.43;;;;;;;-6.93;100.00;99494.63;5061633;28;20208;-80
2024/01/12 07:22:45;;;;;;;39.90;21.87;;;;;;;-6.91;100.00;99487.84;5062638;28;20609;-81
2024/01/12 07:25:14;;;;;;;47.00;23.13;;;;;;;-6.87;100.00;99495.63;5060484;28;20565;-81
2024/01/12 07:27:42;;;;;;;48.53;23.23;;;;;;;-6.80;100.00;99497.50;5060521;28;20211;-80
2024/01/12 07:30:12;;;;;;;50.47;25.77;;;;;;;-6.64;100.00;99498.66;5061490;28;20211;-80
2024/01/12 07:32:38;;;;;;;58.20;24.57;;;;;;;-6.67;100.00;99498.59;5060749;28;20236;-82
2024/01/12 07:35:05;;;;;;;50.43;23.33;;;;;;;-6.68;100.00;99502.00;5062101;28;20214;-81
2024/01/12 07:37:32;;;;;;;54.20;26.73;;;;;;;-6.57;100.00;99506.53;5061190;28;20215;-80
2024/01/12 07:39:58;;;;;;;54.47;25.03;;;;;;;-6.56;100.00;99499.66;5062603;28;20223;-80
2024/01/12 07:42:25;;;;;;;49.20;23.53;;;;;;;-6.55;100.00;99509.09;5060209;28;20220;-79
2024/01/12 07:44:52;;;;;;;54.33;25.30;;;;;;;-6.56;100.00;99517.66;5057103;28;20286;-81
2024/01/12 07:47:19;;;;;;;55.07;24.43;;;;;;;-6.64;100.00;99517.53;5060089;28;20218;-82
2024/01/12 07:49:48;;;;;;;54.00;24.40;;;;;;;-6.67;100.00;99521.72;5062361;28;20214;-81
2024/01/12 07:52:18;;;;;;;58.58;31.35;;;;;;;-6.72;100.00;99519.06;5064324;28;20542;-83
2024/01/12 07:54:44;;;;;;;52.80;26.23;;;;;;;-6.74;100.00;99532.72;5065432;28;20220;-82
2024/01/12 07:57:14;;;;;;;42.57;24.00;;;;;;;-6.83;100.00;99527.41;5061700;28;20299;-82
2024/01/12 07:59:40;;;;;;;46.50;23.73;;;;;;;-6.84;100.00;99535.97;5063479;28;20214;-81
2024/01/12 08:02:07;;;;;;;47.70;23.07;;;;;;;-6.90;100.00;99536.69;5061655;28;20236;-84
2024/01/12 08:04:37;;;;;;;53.17;28.13;;;;;;;-6.83;100.00;99532.53;5061332;28;20446;-81
2024/01/12 08:07:06;;;;;;;56.33;24.43;;;;;;;-6.81;100.00;99536.00;5058606;28;20454;-80
2024/01/12 08:09:32;;;;;;;43.80;23.33;;;;;;;-6.79;100.00;99530.06;5057939;28;20290;-82
2024/01/12 08:11:59;;;;;;;46.40;23.73;;;;;;;-6.72;100.00;99526.78;5057115;28;20254;-82
2024/01/12 08:14:30;;;;;;;51.07;24.43;;;;;;;-6.71;100.00;99530.22;5057394;28;20214;-82
2024/01/12 08:16:57;;;;;;;44.17;22.63;;;;;;;-6.56;100.00;99533.09;5056684;28;20671;-81
2024/01/12 08:19:23;;;;;;;48.40;25.33;;;;;;;-6.42;100.00;99539.41;5059608;28;20216;-82
2024/01/12 08:21:53;;;;;;;51.83;23.70;;;;;;;-6.40;100.00;99546.31;5060345;28;20242;-79
2024/01/12 08:24:26;;;;;;;46.93;22.43;;;;;;;-6.40;100.00;99545.44;5057649;28;20204;-79
2024/01/12 08:26:52;;;;;;;46.10;23.33;;;;;;;-6.35;100.00;99551.53;5057510;28;20220;-82
2024/01/12 08:29:19;;;;;;;45.47;24.77;;;;;;;-6.35;100.00;99560.09;5063536;28;20208;-82
2024/01/12 08:31:45;;;;;;;55.37;24.13;;;;;;;-6.37;100.00;99560.91;5062125;28;20623;-82
2024/01/12 08:34:12;;;;;;;46.53;24.27;;;;;;;-6.37;100.00;99571.19;5060980;28;20224;-83
2024/01/12 08:36:38;;;;;;;42.97;22.30;;;;;;;-6.32;100.00;99567.00;5058855;28;20587;-81
2024/01/12 08:39:06;;;;;;;43.43;23.77;;;;;;;-6.34;100.00;99573.84;5063141;28;20235;-82
2024/01/12 08:41:35;;;;;;;49.43;23.47;;;;;;;-6.28;100.00;99566.25;5072979;28;20748;-82
2024/01/12 08:44:02;;;;;;;51.83;24.37;;;;;;;-6.22;100.00;99567.22;5069678;28;20285;-82
2024/01/12 08:46:28;;;;;;;69.78;37.25;;;;;;;-6.14;100.00;99575.09;5077648;28;20448;-82
2024/01/12 08:48:55;;;;;;;49.57;27.10;;;;;;;-6.10;100.00;99566.59;5077510;28;20214;-81
2024/01/12 08:51:24;;;;;;;59.07;27.17;;;;;;;-5.94;100.00;99584.03;5076976;28;20224;-83
2024/01/12 08:53:50;;;;;;;57.97;26.40;;;;;;;-5.87;100.00;99583.34;5076336;28;20314;-84
2024/01/12 08:56:23;;;;;;;51.97;26.40;;;;;;;-5.87;100.00;99575.59;5076301;28;20210;-83
2024/01/12 08:58:50;;;;;;;52.87;25.33;;;;;;;-5.82;100.00;99579.09;5077672;28;20200;-81
2024/01/12 09:01:16;;;;;;;58.73;27.40;;;;;;;-5.81;100.00;99584.28;5076027;28;20235;-83
2024/01/12 09:03:42;;;;;;;59.03;27.73;;;;;;;-5.70;100.00;99579.28;5079091;28;20204;-84
2024/01/12 09:06:12;;;;;;;51.90;25.53;;;;;;;-5.58;100.00;99589.81;5078227;28;20787;-82
2024/01/12 09:08:38;;;;;;;54.67;27.53;;;;;;;-5.53;100.00;99583.03;5076123;28;20204;-81
2024/01/12 09:11:05;;;;;;;52.17;26.40;;;;;;;-5.48;100.00;99571.97;5076224;28;20207;-81
2024/01/12 09:13:35;;;;;;;50.60;25.17;;;;;;;-5.45;100.00;99581.47;5076110;28;20235;-82
2024/01/12 09:16:02;;;;;;;54.13;26.03;;;;;;;-5.41;100.00;99583.22;5075854;28;20208;-83
2024/01/12 09:18:29;;;;;;;57.73;28.47;;;;;;;-5.36;100.00;99581.59;5076793;28;20207;-81
2024/01/12 09:20:56;;;;;;;59.40;28.57;;;;;;;-5.24;100.00;99584.38;5074386;28;20203;-79
2024/01/12 09:23:22;;;;;;;58.10;26.97;;;;;;;-5.21;100.00;99586.97;5075593;28;20210;-80
2024/01/12 09:25:49;;;;;;;57.07;27.87;;;;;;;-5.13;100.00;99578.53;5074733;28;20210;-80
2024/01/12 09:28:16;;;;;;;60.40;29.13;;;;;;;-5.13;100.00;99586.25;5072449;28;20203;-82
2024/01/12 09:30:44;;;;;;;56.30;27.27;;;;;;;-5.06;100.00;99592.38;5075991;28;20211;-80
2024/01/12 09:33:10;;;;;;;53.93;28.67;;;;;;;-5.01;100.00;99596.75;5076052;28;20652;-82
2024/01/12 09:35:37;;;;;;;55.43;26.87;;;;;;;-4.97;100.00;99593.38;5076681;28;20206;-82
2024/01/12 09:38:04;;;;;;;49.53;27.80;;;;;;;-4.96;100.00;99591.69;5076070;28;20595;-80
2024/01/12 09:40:30;;;;;;;55.37;28.40;;;;;;;-4.92;100.00;99590.88;5076257;28;20219;-80
2024/01/12 09:42:57;;;;;;;62.23;29.50;;;;;;;-4.90;100.00;99589.19;5075820;28;20226;-80
2024/01/12 09:45:26;;;;;;;52.60;26.13;;;;;;;-4.88;100.00;99587.50;5076433;28;20216;-81
2024/01/12 09:47:57;;;;;;;57.83;29.20;;;;;;;-4.82;100.00;99596.19;5066839;28;20323;-81
2024/01/12 09:50:24;;;;;;;58.70;28.50;;;;;;;-4.72;100.00;99594.59;5055456;28;20217;-80
2024/01/12 09:52:51;;;;;;;58.37;26.23;;;;;;;-4.68;100.00;99597.25;5053433;28;20269;-79
2024/01/12 09:55:17;;;;;;;52.60;27.07;;;;;;;-4.58;100.00;99593.09;5054524;28;20314;-81
2024/01/12 09:57:45;;;;;;;53.47;26.83;;;;;;;-4.54;100.00;99592.25;5058146;28;20680;-81
2024/01/12 10:00:14;;;;;;;57.80;27.13;;;;;;;-4.42;100.00;99590.72;5057416;28;20214;-80
2024/01/12 10:02:40;;;;;;;57.30;27.73;;;;;;;-4.37;100.00;99588.19;5056502;28;20276;-80
2024/01/12 10:05:09;;;;;;;56.57;27.57;;;;;;;-4.29;100.00;99586.59;5056500;28;20214;-80
2024/01/12 10:07:36;;;;;;;53.90;27.37;;;;;;;-4.18;100.00;99590.13;5056834;28;20212;-80
2024/01/12 10:10:03;;;;;;;51.27;25.97;;;;;;;-4.14;100.00;99586.75;5056597;28;20619;-80
2024/01/12 10:12:29;;;;;;;55.27;27.33;;;;;;;-4.09;100.00;99579.94;5056497;28;20296;-80
2024/01/12 10:15:02;;;;;;;51.27;26.60;;;;;;;-4.04;100.00;99570.53;5056326;28;20236;-80
2024/01/12 10:17:29;;;;;;;49.53;25.63;;;;;;;-3.93;100.00;99566.31;5056615;28;20201;-82
2024/01/12 10:19:56;;;;;;;51.67;26.50;;;;;;;-3.82;100.00;99559.56;5058534;28;20300;-81
2024/01/12 10:22:24;;;;;;;45.83;24.63;;;;;;;-3.82;100.00;99564.72;5058142;28;20235;-80
2024/01/12 10:24:57;;;;;;;56.38;31.65;;;;;;;-3.73;100.00;99559.66;5056777;28;20455;-80
2024/01/12 10:27:24;;;;;;;40.67;22.27;;;;;;;-3.74;100.00;99568.28;5057207;28;20576;-79
2024/01/12 10:29:50;;;;;;;40.13;22.23;;;;;;;-3.71;100.00;99573.44;5056660;28;20220;-80
2024/01/12 10:32:19;;;;;;;43.03;22.83;;;;;;;-3.73;100.00;99557.06;5056107;28;20242;-81
2024/01/12 10:34:47;;;;;;;42.00;21.53;;;;;;;-3.67;100.00;99562.31;5056354;28;20228;-80
2024/01/12 10:37:15;;;;;;;41.00;22.20;;;;;;;-3.57;100.00;99546.00;5056071;28;20212;-79
2024/01/12 10:39:45;;;;;;;43.50;22.47;;;;;;;-3.53;100.00;99542.63;5056421;28;20750;-79
2024/01/12 10:42:12;;;;;;;44.57;22.70;;;;;;;-3.54;100.00;99549.47;5056531;28;20711;-79
2024/01/12 10:44:40;;;;;;;46.43;23.73;;;;;;;-3.58;100.00;99554.63;5056636;28;20205;-80
2024/01/12 10:47:11;;;;;;;45.37;23.57;;;;;;;-3.48;100.00;99546.09;5057826;28;20209;-80
2024/01/12 10:49:48;;;;;;;41.57;22.93;;;;;;;-3.47;100.00;99543.53;5056343;28;20224;-77
2024/01/12 10:52:25;;;;;;;36.63;20.87;;;;;;;-3.54;100.00;99535.72;5056297;28;20236;-78
2024/01/12 10:55:00;;;;;;;47.13;22.47;;;;;;;-3.58;100.00;99537.41;5057477;28;20226;-78
2024/01/12 10:57:27;;;;;;;42.17;21.80;;;;;;;-3.50;100.00;99545.19;5055525;28;20304;-79
2024/01/12 10:59:55;;;;;;;41.27;22.60;;;;;;;-3.40;100.00;99544.44;5058252;28;20753;-80
2024/01/12 11:02:22;;;;;;;35.97;20.97;;;;;;;-3.50;100.00;99537.44;5058511;28;20234;-79
2024/01/12 11:04:49;;;;;;;57.25;32.55;;;;;;;-3.28;100.00;99534.19;5058225;28;20432;-81
2024/01/12 11:07:16;;;;;;;48.20;24.37;;;;;;;-3.26;100.00;99532.47;5056829;28;20214;-80
2024/01/12 11:09:43;;;;;;;40.27;22.93;;;;;;;-3.33;100.00;99533.28;5058457;28;20209;-79